createdAt,value
2019-04-01T00:00:41.660Z,4.55
2019-04-01T00:03:48.901Z,4.75
2019-04-01T00:06:55.855Z,5.15
2019-04-01T00:10:02.694Z,4.37
2019-04-01T00:13:11.455Z,4.03
2019-04-01T00:16:18.325Z,6.15
2019-04-01T00:19:27.283Z,4.75
2019-04-01T00:22:34.116Z,4.60
2019-04-01T00:25:41.037Z,4.42
2019-04-01T00:28:47.972Z,5.33
2019-04-01T00:31:55.096Z,4.83
2019-04-01T00:35:03.112Z,5.55
2019-04-01T00:38:10.103Z,7.40
2019-04-01T00:41:17.029Z,5.03
2019-04-01T00:44:23.968Z,5.28
2019-04-01T00:47:32.683Z,3.33
2019-04-01T00:50:39.561Z,4.08
2019-04-01T00:53:46.407Z,3.50
2019-04-01T00:56:53.290Z,4.62
2019-04-01T01:00:00.465Z,4.12
2019-04-01T01:03:08.477Z,3.90
2019-04-01T01:06:15.508Z,4.30
2019-04-01T01:09:25.033Z,4.30
2019-04-01T01:12:31.488Z,6.42
2019-04-01T01:15:38.706Z,4.25
2019-04-01T01:18:45.600Z,5.37
2019-04-01T01:21:52.502Z,4.65
2019-04-01T01:24:59.366Z,4.35
2019-04-01T01:28:06.467Z,5.08
2019-04-01T01:31:14.995Z,3.60
2019-04-01T01:34:21.874Z,5.17
2019-04-01T01:37:29.854Z,4.95
2019-04-01T01:40:36.745Z,5.33
2019-04-01T01:43:43.584Z,3.77
2019-04-01T01:46:50.566Z,5.20
2019-04-01T01:49:57.414Z,4.75
2019-04-01T01:53:04.288Z,4.10
2019-04-01T01:56:11.118Z,4.40
2019-04-01T01:59:18.147Z,4.37
2019-04-01T02:02:26.295Z,5.03
2019-04-01T02:05:33.166Z,5.28
2019-04-01T02:08:40.005Z,6.83
2019-04-01T02:11:46.886Z,4.80
2019-04-01T02:14:53.844Z,5.55
2019-04-01T02:18:00.707Z,5.35
2019-04-01T02:21:07.553Z,5.00
2019-04-01T02:24:14.435Z,4.60
2019-04-01T02:27:21.311Z,6.62
2019-04-01T02:30:29.119Z,4.70
2019-04-01T02:33:36.163Z,3.70
2019-04-01T02:36:43.040Z,5.08
2019-04-01T02:39:51.230Z,4.42
2019-04-01T02:42:58.376Z,5.42
2019-04-01T02:46:05.210Z,5.33
2019-04-01T02:49:12.082Z,6.72
2019-04-01T02:52:19.005Z,4.45
2019-04-01T02:55:26.521Z,4.75
2019-04-01T02:58:33.371Z,8.95
2019-04-01T03:01:40.258Z,4.30
2019-04-01T03:04:48.165Z,6.33
2019-04-01T03:07:55.028Z,6.37
2019-04-01T03:11:01.869Z,5.85
2019-04-01T03:14:08.749Z,5.47
2019-04-01T03:17:15.584Z,3.95
2019-04-01T03:20:22.691Z,5.00
2019-04-01T03:23:31.058Z,5.17
2019-04-01T03:26:37.926Z,5.95
2019-04-01T03:29:44.780Z,6.45
2019-04-01T03:32:51.713Z,4.35
2019-04-01T03:35:58.740Z,6.00
2019-04-01T03:39:07.136Z,5.30
2019-04-01T03:42:15.140Z,5.15
2019-04-01T03:45:22.419Z,7.00
2019-04-01T03:48:29.440Z,4.58
2019-04-01T03:51:36.342Z,4.58
2019-04-01T03:54:43.183Z,5.78
2019-04-01T03:57:50.068Z,4.40
2019-04-01T04:00:56.896Z,4.55
2019-04-01T04:04:03.773Z,5.67
2019-04-01T04:07:10.732Z,5.35
2019-04-01T04:10:17.746Z,5.70
2019-04-01T04:13:25.402Z,4.55
2019-04-01T04:16:32.359Z,5.67
2019-04-01T04:19:39.200Z,4.05
2019-04-01T04:22:46.083Z,5.85
2019-04-01T04:25:52.918Z,4.83
2019-04-01T04:28:59.809Z,4.87
2019-04-01T04:32:06.733Z,4.67
2019-04-01T04:35:13.730Z,6.00
2019-04-01T04:38:21.191Z,6.03
2019-04-01T04:41:28.451Z,5.72
2019-04-01T04:44:35.520Z,5.60
2019-04-01T04:47:42.398Z,4.87
2019-04-01T04:50:49.331Z,4.45
2019-04-01T04:53:56.207Z,3.17
2019-04-01T04:57:03.543Z,5.45
2019-04-01T05:00:12.150Z,3.98
2019-04-01T05:03:19.007Z,5.87
2019-04-01T05:06:25.885Z,4.72
2019-04-01T05:09:32.726Z,3.70
2019-04-01T05:12:39.605Z,3.65
2019-04-01T05:15:46.537Z,4.37
2019-04-01T05:18:53.488Z,4.30
2019-04-01T05:22:00.755Z,3.98
2019-04-01T05:25:07.936Z,4.08
2019-04-01T05:28:17.299Z,3.70
2019-04-01T05:31:25.631Z,3.60
2019-04-01T05:34:34.159Z,4.80
2019-04-01T05:37:41.143Z,4.40
2019-04-01T05:40:48.650Z,3.95
2019-04-01T05:43:57.973Z,4.00
2019-04-01T05:47:05.577Z,3.95
2019-04-01T05:50:12.459Z,3.40
2019-04-01T05:53:20.333Z,5.28
2019-04-01T05:56:27.204Z,3.87
2019-04-01T05:59:34.083Z,4.70
2019-04-01T06:02:40.984Z,3.30
2019-04-01T06:05:47.955Z,4.90
2019-04-01T06:08:55.720Z,4.35
2019-04-01T06:12:03.168Z,4.58
2019-04-01T06:15:10.153Z,4.92
2019-04-01T06:18:16.993Z,3.80
2019-04-01T06:21:23.902Z,5.08
2019-04-01T06:24:31.549Z,4.00
2019-04-01T06:27:38.470Z,6.65
2019-04-01T06:30:45.762Z,4.33
2019-04-01T06:33:54.275Z,5.05
2019-04-01T06:37:01.174Z,3.62
2019-04-01T06:40:08.453Z,4.65
2019-04-01T06:43:16.392Z,3.37
2019-04-01T06:46:23.279Z,3.40
2019-04-01T06:49:31.375Z,4.70
2019-04-01T06:52:38.343Z,4.80
2019-04-01T06:55:45.654Z,3.10
2019-04-01T06:58:54.159Z,3.47
2019-04-01T07:02:01.003Z,5.17
2019-04-01T07:05:07.987Z,3.62
2019-04-01T07:08:15.143Z,7.00
2019-04-01T07:11:22.143Z,4.83
2019-04-01T07:14:29.104Z,4.08
2019-04-01T07:17:36.069Z,6.42
2019-04-01T07:20:45.567Z,4.28
2019-04-01T07:24:58.308Z,5.65
2019-04-01T07:28:28.236Z,7.08
2019-04-01T07:32:00.811Z,3.75
2019-04-01T07:35:08.454Z,5.45
2019-04-01T07:38:15.519Z,6.00
2019-04-01T07:41:22.383Z,6.65
2019-04-01T07:44:29.620Z,6.65
2019-04-01T07:47:37.545Z,9.58
2019-04-01T07:50:45.591Z,6.42
2019-04-01T07:53:53.049Z,7.03
2019-04-01T07:57:01.247Z,6.12
2019-04-01T08:00:09.345Z,6.53
2019-04-01T08:03:16.240Z,5.33
2019-04-01T08:06:23.151Z,7.20
2019-04-01T08:09:30.693Z,4.22
2019-04-01T08:12:40.411Z,3.80
2019-04-01T08:15:47.311Z,7.67
2019-04-01T08:18:54.141Z,6.08
2019-04-01T08:22:01.055Z,5.80
2019-04-01T08:25:08.027Z,5.37
2019-04-01T08:28:15.026Z,4.72
2019-04-01T08:31:22.503Z,4.80
2019-04-01T08:34:29.383Z,4.92
2019-04-01T08:37:39.861Z,4.58
2019-04-01T08:40:44.850Z,5.05
2019-04-01T08:43:51.999Z,5.42
2019-04-01T08:46:59.210Z,5.00
2019-04-01T08:50:07.391Z,5.60
2019-04-01T08:53:14.689Z,4.40
2019-04-01T08:56:22.668Z,5.08
2019-04-01T08:59:29.681Z,4.70
2019-04-01T09:02:36.644Z,5.70
2019-04-01T09:05:43.596Z,5.17
2019-04-01T09:08:53.276Z,5.33
2019-04-01T09:12:00.553Z,5.72
2019-04-01T09:15:07.755Z,6.97
2019-04-01T09:18:15.024Z,8.50
2019-04-01T09:21:29.784Z,7.30
2019-04-01T09:24:36.666Z,5.10
2019-04-01T09:27:43.536Z,5.47
2019-04-01T09:30:50.532Z,6.67
2019-04-01T09:34:00.536Z,7.72
2019-04-01T09:37:07.609Z,8.00
2019-04-01T09:40:14.680Z,6.53
2019-04-01T09:43:24.796Z,5.35
2019-04-01T09:46:31.663Z,7.03
2019-04-01T09:49:38.551Z,6.33
2019-04-01T09:53:01.470Z,3.83
2019-04-01T09:56:08.683Z,9.78
2019-04-01T09:59:15.566Z,8.55
2019-04-01T10:02:32.124Z,5.37
2019-04-01T10:05:34.657Z,7.00
2019-04-01T10:08:42.916Z,12.33
2019-04-01T10:11:49.880Z,8.20
2019-04-01T10:14:56.788Z,6.20
2019-04-01T10:18:04.699Z,9.40
2019-04-01T10:21:11.592Z,8.80
2019-04-01T10:24:18.638Z,5.92
2019-04-01T10:27:28.256Z,9.83
2019-04-01T10:30:35.098Z,8.90
2019-04-01T10:33:45.886Z,8.35
2019-04-01T10:36:52.978Z,7.33
2019-04-01T10:40:00.415Z,8.33
2019-04-01T10:43:07.678Z,12.25
2019-04-01T10:46:14.658Z,10.40
2019-04-01T10:49:22.777Z,9.15
2019-04-01T10:52:29.735Z,7.70
2019-04-01T10:55:36.727Z,8.03
2019-04-01T10:58:45.131Z,9.63
2019-04-01T11:01:52.197Z,8.75
2019-04-01T11:04:59.159Z,8.65
2019-04-01T11:08:06.057Z,8.83
2019-04-01T11:11:13.009Z,9.03
2019-04-01T11:14:24.339Z,6.03
2019-04-01T11:17:31.238Z,9.25
2019-04-01T11:20:38.090Z,10.25
2019-04-01T11:23:44.996Z,7.85
2019-04-01T11:26:51.859Z,5.95
2019-04-01T11:29:58.817Z,10.88
2019-04-01T11:33:07.709Z,12.33
2019-04-01T11:36:14.352Z,10.65
2019-04-01T11:39:21.872Z,9.63
2019-04-01T11:42:28.911Z,11.08
2019-04-01T11:45:35.806Z,10.43
2019-04-01T11:48:42.751Z,10.65
2019-04-01T11:51:49.763Z,10.88
2019-04-01T11:54:56.806Z,12.33
2019-04-01T11:58:03.895Z,7.15
2019-04-01T12:01:11.915Z,7.87
2019-04-01T12:04:18.764Z,11.48
2019-04-01T12:07:29.153Z,11.83
2019-04-01T12:10:36.187Z,11.15
2019-04-01T12:13:43.363Z,8.98
2019-04-01T12:16:50.224Z,10.00
2019-04-01T12:19:57.112Z,12.95
2019-04-01T12:23:04.034Z,6.33
2019-04-01T12:26:15.428Z,8.93
2019-04-01T12:29:19.746Z,11.95
2019-04-01T12:32:28.407Z,9.15
2019-04-01T12:35:35.349Z,13.58
2019-04-01T12:38:42.235Z,12.15
2019-04-01T12:41:50.170Z,9.05
2019-04-01T12:44:57.086Z,10.53
2019-04-01T12:48:04.007Z,9.95
2019-04-01T12:51:10.904Z,5.85
2019-04-01T12:54:20.316Z,9.55
2019-04-01T12:57:27.238Z,10.65
2019-04-01T13:00:34.748Z,10.25
2019-04-01T13:03:43.004Z,11.30
2019-04-01T13:06:50.828Z,11.80
2019-04-01T13:09:58.520Z,12.73
2019-04-01T13:13:05.402Z,10.23
2019-04-01T13:16:12.306Z,13.40
2019-04-01T13:19:23.903Z,10.90
2019-04-01T13:22:30.880Z,11.63
2019-04-01T13:25:37.723Z,11.80
2019-04-01T13:28:44.709Z,14.38
2019-04-01T13:31:51.696Z,12.80
2019-04-01T13:34:58.572Z,12.47
2019-04-01T13:38:05.451Z,10.43
2019-04-01T13:41:13.192Z,11.85
2019-04-01T13:44:20.596Z,13.93
2019-04-01T13:47:27.592Z,9.55
2019-04-01T13:50:34.631Z,11.50
2019-04-01T13:53:41.542Z,10.72
2019-04-01T13:56:48.394Z,11.40
2019-04-01T14:00:03.044Z,8.75
2019-04-01T14:03:11.333Z,12.03
2019-04-01T14:06:22.565Z,10.98
2019-04-01T14:09:30.952Z,11.93
2019-04-01T14:12:38.085Z,12.90
2019-04-01T14:15:45.014Z,12.33
2019-04-01T14:18:51.900Z,10.80
2019-04-01T14:21:58.787Z,11.48
2019-04-01T14:25:07.981Z,9.60
2019-04-01T14:28:17.935Z,10.25
2019-04-01T14:31:27.759Z,10.80
2019-04-01T14:34:35.521Z,8.20
2019-04-01T14:37:42.853Z,12.30
2019-04-01T14:40:49.806Z,4.42
2019-04-01T14:43:56.677Z,5.15
2019-04-01T14:47:04.099Z,8.00
2019-04-01T14:50:11.824Z,14.13
2019-04-01T14:53:19.527Z,8.95
2019-04-01T14:56:27.796Z,8.58
2019-04-01T14:59:36.158Z,7.22
2019-04-01T15:02:43.083Z,8.40
2019-04-01T15:05:50.017Z,9.80
2019-04-01T15:08:57.228Z,7.28
2019-04-01T15:12:04.084Z,11.08
2019-04-01T15:15:11.764Z,12.58
2019-04-01T15:18:19.824Z,10.75
2019-04-01T15:21:26.717Z,8.58
2019-04-01T15:24:33.559Z,9.45
2019-04-01T15:27:40.443Z,9.13
2019-04-01T15:30:47.490Z,8.73
2019-04-01T15:33:54.524Z,10.75
2019-04-01T15:37:01.536Z,8.48
2019-04-01T15:40:09.126Z,13.15
2019-04-01T15:43:16.456Z,12.85
2019-04-01T15:46:24.963Z,9.85
2019-04-01T15:49:32.064Z,8.93
2019-04-01T15:52:39.032Z,12.78
2019-04-01T15:55:46.024Z,9.15
2019-04-01T15:58:52.903Z,9.35
2019-04-01T16:01:59.833Z,7.67
2019-04-01T16:05:07.185Z,5.40
2019-04-01T16:08:16.924Z,7.03
2019-04-01T16:11:24.910Z,7.45
2019-04-01T16:14:31.932Z,6.12
2019-04-01T16:17:54.092Z,5.75
2019-04-01T16:21:01.120Z,5.47
2019-04-01T16:24:10.948Z,7.60
2019-04-01T16:27:18.623Z,5.97
2019-04-01T16:30:25.555Z,4.97
2019-04-01T16:33:33.016Z,5.92
2019-04-01T16:36:39.912Z,5.75
2019-04-01T16:39:48.688Z,4.12
2019-04-01T16:42:55.868Z,5.40
2019-04-01T16:46:02.877Z,6.17
2019-04-01T16:49:09.771Z,4.92
2019-04-01T16:52:16.824Z,10.30
2019-04-01T16:55:24.931Z,5.08
2019-04-01T16:58:34.812Z,5.42
2019-04-01T17:01:41.834Z,4.40
2019-04-01T17:04:48.856Z,4.05
2019-04-01T17:07:55.758Z,3.80
2019-04-01T17:11:02.854Z,4.28
2019-04-01T17:14:10.046Z,3.60
2019-04-01T17:17:17.826Z,3.75
2019-04-01T17:20:25.427Z,3.98
2019-04-01T17:23:32.419Z,4.15
2019-04-01T17:27:04.072Z,5.45
2019-04-01T17:30:12.335Z,3.33
2019-04-01T17:33:21.006Z,3.52
2019-04-01T17:36:27.849Z,2.85
2019-04-01T17:39:34.854Z,4.15
2019-04-01T17:42:41.704Z,4.40
2019-04-01T17:45:48.592Z,4.35
2019-04-01T17:48:55.422Z,4.25
2019-04-01T17:52:04.458Z,3.33
2019-04-01T17:55:11.525Z,3.50
2019-04-01T17:58:18.613Z,4.45
2019-04-01T18:01:25.706Z,4.00
2019-04-01T18:04:32.807Z,4.00
2019-04-01T18:07:39.673Z,4.50
2019-04-01T18:10:48.801Z,4.08
2019-04-01T18:13:55.140Z,4.58
2019-04-01T18:17:02.609Z,5.33
2019-04-01T18:20:10.213Z,4.85
2019-04-01T18:23:17.226Z,5.15
2019-04-01T18:26:24.183Z,3.98
2019-04-01T18:29:32.093Z,4.60
2019-04-01T18:32:38.957Z,3.83
2019-04-01T18:35:45.848Z,4.62
2019-04-01T18:38:52.653Z,4.67
2019-04-01T18:41:59.519Z,4.03
2019-04-01T18:45:07.460Z,4.90
2019-04-01T18:48:15.054Z,4.00
2019-04-01T18:51:28.932Z,4.75
2019-04-01T18:54:35.807Z,3.95
2019-04-01T18:57:42.840Z,4.80
2019-04-01T19:00:50.486Z,4.45
2019-04-01T19:03:57.330Z,3.90
2019-04-01T19:07:04.834Z,3.05
2019-04-01T19:10:11.901Z,4.05
2019-04-01T19:13:20.049Z,4.60
2019-04-01T19:16:26.887Z,4.87
2019-04-01T19:19:35.060Z,3.45
2019-04-01T19:22:42.011Z,3.62
2019-04-01T19:25:48.930Z,4.40
2019-04-01T19:28:58.184Z,3.80
2019-04-01T19:32:04.397Z,4.47
2019-04-01T19:35:12.099Z,3.42
2019-04-01T19:38:21.516Z,3.65
2019-04-01T19:41:28.655Z,3.52
2019-04-01T19:44:35.554Z,4.58
2019-04-01T19:47:43.462Z,4.22
2019-04-01T19:50:50.341Z,3.85
2019-04-01T19:53:57.215Z,4.55
2019-04-01T19:57:04.201Z,4.72
2019-04-01T20:00:11.341Z,3.80
2019-04-01T20:03:25.373Z,2.62
2019-04-01T20:06:32.479Z,2.75
2019-04-01T20:09:40.526Z,3.27
2019-04-01T20:12:47.374Z,4.33
2019-04-01T20:15:54.285Z,4.85
2019-04-01T20:19:01.128Z,3.87
2019-04-01T20:22:09.281Z,4.60
2019-04-01T20:25:21.686Z,4.17
2019-04-01T20:28:28.675Z,4.28
2019-04-01T20:31:35.524Z,4.50
2019-04-01T20:34:42.421Z,4.90
2019-04-01T20:37:49.335Z,4.40
2019-04-01T20:40:56.208Z,4.80
2019-04-01T20:44:03.068Z,3.75
2019-04-01T20:47:09.971Z,5.47
2019-04-01T20:50:19.814Z,3.75
2019-04-01T20:53:26.841Z,6.58
2019-04-01T20:56:33.685Z,3.58
2019-04-01T20:59:41.108Z,4.60
2019-04-01T21:02:48.520Z,3.92
2019-04-01T21:05:55.678Z,4.03
2019-04-01T21:09:05.834Z,3.12
2019-04-01T21:12:12.692Z,4.08
2019-04-01T21:15:21.636Z,3.72
2019-04-01T21:18:28.517Z,5.00
2019-04-01T21:21:35.371Z,3.25
2019-04-01T21:24:42.415Z,4.05
2019-04-01T21:27:49.350Z,4.85
2019-04-01T21:30:59.407Z,3.85
2019-04-01T21:34:07.844Z,5.05
2019-04-01T21:37:16.608Z,4.33
2019-04-01T21:40:23.484Z,4.05
2019-04-01T21:43:30.386Z,4.00
2019-04-01T21:46:37.218Z,4.45
2019-04-01T21:49:44.087Z,3.90
2019-04-01T21:52:50.936Z,4.05
2019-04-01T21:55:57.893Z,3.52
2019-04-01T21:59:04.724Z,3.52
2019-04-01T22:02:11.599Z,4.12
2019-04-01T22:05:21.421Z,4.60
2019-04-01T22:08:28.413Z,3.98
2019-04-01T22:11:35.347Z,4.22
2019-04-01T22:14:43.945Z,3.62
2019-04-01T22:17:51.402Z,3.52
2019-04-01T22:20:58.829Z,3.50
2019-04-01T22:24:06.337Z,5.03
2019-04-01T22:27:18.285Z,4.08
2019-04-01T22:30:25.177Z,3.62
2019-04-01T22:33:32.043Z,3.10
2019-04-01T22:36:39.899Z,3.90
2019-04-01T22:39:47.135Z,3.35
2019-04-01T22:42:53.978Z,4.95
2019-04-01T22:46:00.901Z,3.08
2019-04-01T22:49:07.751Z,4.22
2019-04-01T22:52:17.675Z,2.58
2019-04-01T22:55:26.149Z,3.83
2019-04-01T22:58:33.027Z,5.60
2019-04-01T23:01:39.884Z,4.30
2019-04-01T23:04:46.757Z,4.55
2019-04-01T23:07:53.593Z,3.55
2019-04-01T23:11:00.533Z,4.12
2019-04-01T23:14:07.454Z,3.37
2019-04-01T23:17:18.801Z,4.03
2019-04-01T23:20:25.698Z,5.10
2019-04-01T23:23:32.566Z,3.40
2019-04-01T23:26:39.407Z,6.25
2019-04-01T23:29:46.853Z,4.05
2019-04-01T23:32:53.698Z,2.98
2019-04-01T23:36:01.626Z,7.10
2019-04-01T23:39:09.690Z,3.75
2019-04-01T23:42:16.663Z,4.33
2019-04-01T23:45:23.513Z,3.85
2019-04-01T23:48:30.394Z,4.22
2019-04-01T23:51:37.224Z,3.67
2019-04-01T23:54:44.292Z,3.08
2019-04-01T23:57:51.143Z,3.62
